Time;durP1;ratioP1;P1;durP2;ratioP2;P2;SDS_P1;SDS_P2;PMS_P1;PMS_P2;Temp;Humidity;BMP_temperature;BMP_pressure;BME280_temperature;BME280_humidity;BME280_pressure;Samples;Min_cycle;Max_cycle;Signal;HPM_P1;HPM_P2
2021/12/16 00:01:45;;;;;;;26.50;12.30;;;;;;;8.12;60.48;99961.94;4486571;32;20157;-81
2021/12/16 00:09:00;;;;;;;29.00;12.50;;;;;;;7.81;61.14;99951.34;4487830;32;20223;-80
2021/12/16 00:35:36;;;;;;;26.20;11.15;;;;;;;7.04;63.93;99958.34;4487710;31;20140;-81
2021/12/16 00:38:02;;;;;;;25.80;10.65;;;;;;;7.09;63.75;99972.22;4488234;31;20459;-80
2021/12/16 00:40:28;;;;;;;24.63;11.02;;;;;;;7.14;63.52;99975.59;4486031;32;20453;-81
2021/12/16 00:42:59;;;;;;;27.48;11.82;;;;;;;7.11;63.47;99977.41;4487803;31;20087;-81
2021/12/16 00:45:44;;;;;;;25.67;10.70;;;;;;;6.98;63.67;99968.97;4487818;31;20148;-81
2021/12/16 00:48:23;;;;;;;26.50;11.35;;;;;;;7.00;63.53;99968.03;4487932;31;20488;-81
2021/12/16 00:56:07;;;;;;;28.23;12.13;;;;;;;6.40;66.16;99968.34;4487763;32;20501;-81
2021/12/16 00:58:41;;;;;;;29.63;12.73;;;;;;;6.57;65.71;99965.44;4487607;31;20104;-81
2021/12/16 01:01:28;;;;;;;30.60;12.40;;;;;;;6.54;66.11;99968.09;4487555;31;20115;-82
2021/12/16 01:04:48;;;;;;;27.73;11.35;;;;;;;6.71;65.49;99968.63;4487571;31;20072;-82
2021/12/16 01:34:05;;;;;;;36.85;16.02;;;;;;;6.58;66.57;99959.28;4453879;32;20097;-80
2021/12/16 01:36:46;;;;;;;34.25;15.23;;;;;;;6.68;66.14;99956.47;4440875;32;20097;-80
2021/12/16 01:49:52;;;;;;;30.60;13.35;;;;;;;6.82;65.54;99943.09;4453635;32;20492;-80
2021/12/16 01:52:51;;;;;;;29.67;12.68;;;;;;;6.79;65.92;99937.91;4454094;32;20100;-81
2021/12/16 01:55:33;;;;;;;30.27;12.10;;;;;;;6.81;66.08;99936.12;4453847;32;20105;-81
2021/12/16 01:58:11;;;;;;;28.90;12.60;;;;;;;6.57;66.70;99942.72;4453701;32;20184;-81
2021/12/16 02:00:55;;;;;;;32.35;13.38;;;;;;;6.50;67.46;99938.50;4453544;32;20101;-81
2021/12/16 02:03:27;;;;;;;30.10;12.85;;;;;;;6.82;66.09;99932.63;4440696;32;20112;-81
2021/12/16 02:08:23;;;;;;;29.83;13.50;;;;;;;6.84;65.78;99927.34;4453722;32;20113;-82
2021/12/16 02:11:08;;;;;;;31.08;13.85;;;;;;;6.87;65.50;99925.50;4487222;32;20127;-82
2021/12/16 02:32:45;;;;;;;34.08;14.02;;;;;;;6.83;65.91;99926.47;4453463;32;20113;-81
2021/12/16 02:37:44;;;;;;;33.35;14.85;;;;;;;6.57;66.48;99931.41;4453431;32;20147;-81
2021/12/16 02:40:10;;;;;;;37.88;16.33;;;;;;;6.63;66.54;99934.75;4441467;32;20432;-81
2021/12/16 02:42:52;;;;;;;40.00;16.37;;;;;;;6.67;66.83;99922.44;4453539;32;20100;-81
2021/12/16 02:50:46;;;;;;;35.88;14.90;;;;;;;6.81;65.96;99915.16;4453205;32;20111;-82
2021/12/16 02:53:12;;;;;;;32.67;14.77;;;;;;;6.92;65.52;99914.09;4453231;32;20144;-82
2021/12/16 02:55:37;;;;;;;36.50;15.23;;;;;;;6.85;65.36;99913.34;4453225;32;20397;-82
2021/12/16 02:58:03;;;;;;;35.40;14.77;;;;;;;6.95;65.27;99914.00;4440250;32;20400;-82
2021/12/16 03:00:37;;;;;;;33.40;15.52;;;;;;;6.83;65.50;99905.50;4439998;32;20157;-82
2021/12/16 03:03:03;;;;;;;38.13;15.88;;;;;;;6.82;66.05;99895.94;4452341;32;20132;-82
2021/12/16 03:05:28;;;;;;;37.90;15.95;;;;;;;6.97;65.52;99896.50;4457068;32;20164;-81
2021/12/16 03:07:54;;;;;;;34.65;14.73;;;;;;;6.87;65.62;99894.06;4485449;32;20110;-81
2021/12/16 03:13:24;;;;;;;34.42;14.45;;;;;;;7.04;64.97;99885.84;4485469;32;20096;-82
2021/12/16 03:18:29;;;;;;;33.90;14.35;;;;;;;7.04;64.85;99877.13;4486438;31;20087;-81
2021/12/16 03:21:01;;;;;;;34.78;15.00;;;;;;;7.20;64.58;99888.13;4485584;32;20482;-81
2021/12/16 03:37:15;;;;;;;34.47;14.95;;;;;;;7.04;65.38;99893.69;4440126;32;20109;-81
2021/12/16 03:39:55;;;;;;;32.63;14.98;;;;;;;7.21;64.75;99895.09;4452612;32;20138;-81
2021/12/16 03:42:21;;;;;;;33.03;13.65;;;;;;;7.22;64.64;99884.59;4452779;32;20530;-81
2021/12/16 03:44:58;;;;;;;33.33;13.95;;;;;;;7.29;64.42;99886.13;4452538;32;20244;-81
2021/12/16 03:47:31;;;;;;;33.07;13.67;;;;;;;7.29;64.49;99882.66;4439640;32;20104;-81
2021/12/16 03:49:57;;;;;;;35.15;13.77;;;;;;;7.34;64.49;99883.44;4439689;32;20471;-81
2021/12/16 03:52:23;;;;;;;33.80;14.93;;;;;;;7.30;64.61;99889.63;4452534;32;20115;-81
2021/12/16 03:54:51;;;;;;;33.63;15.48;;;;;;;7.03;65.21;99894.63;4439495;32;20106;-81
2021/12/16 03:57:20;;;;;;;37.05;15.35;;;;;;;7.18;64.82;99896.00;4452443;32;20809;-80
2021/12/16 03:59:46;;;;;;;39.80;15.70;;;;;;;7.15;64.86;99895.25;4452245;32;20449;-80
2021/12/16 04:02:20;;;;;;;36.47;15.90;;;;;;;7.18;64.74;99893.38;4452514;32;20448;-81
2021/12/16 04:04:47;;;;;;;38.15;15.57;;;;;;;7.04;65.36;99901.56;4439969;32;20548;-81
2021/12/16 04:07:13;;;;;;;37.97;16.60;;;;;;;7.19;65.03;99891.66;4452651;32;20109;-81
2021/12/16 04:09:38;;;;;;;39.80;17.12;;;;;;;7.24;64.69;99890.66;4452358;32;20112;-81
2021/12/16 04:12:09;;;;;;;37.53;15.48;;;;;;;7.20;65.01;99895.97;4475063;32;20080;-81
2021/12/16 04:14:36;;;;;;;39.25;16.37;;;;;;;7.16;65.18;99894.31;4487341;31;20160;-81
2021/12/16 04:17:03;;;;;;;41.70;17.25;;;;;;;7.14;65.02;99889.13;4486961;32;20113;-81
2021/12/16 04:19:31;;;;;;;36.85;16.00;;;;;;;7.08;65.24;99892.72;4487747;31;20080;-81
2021/12/16 04:22:03;;;;;;;39.78;16.95;;;;;;;7.16;65.18;99903.03;4486839;32;20148;-81
2021/12/16 04:24:29;;;;;;;39.90;16.98;;;;;;;7.02;65.63;99897.25;4488007;31;20088;-81
2021/12/16 04:26:56;;;;;;;39.75;16.95;;;;;;;7.06;65.39;99894.53;4486782;32;20482;-81
2021/12/16 04:29:23;;;;;;;43.17;18.00;;;;;;;7.04;65.45;99890.22;4487927;31;20451;-81
2021/12/16 04:31:50;;;;;;;41.83;17.85;;;;;;;7.19;64.95;99896.88;4487752;31;20120;-81
2021/12/16 04:34:16;;;;;;;39.47;16.83;;;;;;;7.16;65.02;99897.81;4486742;32;20396;-82
2021/12/16 04:36:42;;;;;;;47.53;21.98;;;;;;;7.29;64.41;99895.78;4487833;31;20100;-81
2021/12/16 04:39:12;;;;;;;53.63;26.95;;;;;;;7.20;63.98;99901.22;4486776;32;20480;-82
2021/12/16 04:41:38;;;;;;;63.90;30.85;;;;;;;7.34;63.29;99903.50;4487036;32;20088;-81
2021/12/16 04:44:11;;;;;;;59.65;28.48;;;;;;;7.35;62.76;99900.00;4487957;31;20108;-81
2021/12/16 04:46:37;;;;;;;58.13;28.75;;;;;;;7.33;62.37;99891.31;4488065;31;20093;-81
2021/12/16 04:49:05;;;;;;;59.05;27.27;;;;;;;7.26;62.27;99891.47;4486544;32;20084;-81
2021/12/16 04:51:33;;;;;;;57.22;25.27;;;;;;;7.24;62.20;99892.38;4486572;32;20076;-81
2021/12/16 04:54:01;;;;;;;;;;;;;;;7.26;62.09;99901.97;4488331;31;20591;-81
2021/12/16 04:56:27;;;;;;;55.33;24.70;;;;;;;7.31;61.79;99885.25;4486831;32;20252;-81
2021/12/16 04:58:53;;;;;;;52.47;24.95;;;;;;;7.22;62.13;99883.69;4487904;31;20080;-81
2021/12/16 05:01:19;;;;;;;48.50;23.08;;;;;;;7.17;62.34;99880.34;4473284;32;20107;-81
2021/12/16 05:03:45;;;;;;;53.25;23.08;;;;;;;7.09;62.60;99883.12;4486446;32;20088;-81
2021/12/16 05:06:11;;;;;;;54.72;24.83;;;;;;;7.11;62.63;99889.22;4487578;31;20096;-81
2021/12/16 05:08:37;;;;;;;56.08;26.23;;;;;;;7.09;62.76;99881.38;4487610;31;20088;-81
2021/12/16 05:11:04;;;;;;;54.80;23.42;;;;;;;7.05;62.97;99884.06;4486408;32;20089;-81
2021/12/16 05:13:31;;;;;;;47.60;22.77;;;;;;;7.16;62.75;99882.09;4487549;31;20501;-81
2021/12/16 05:16:02;;;;;;;49.33;21.25;;;;;;;7.26;62.55;99880.09;4487654;31;20118;-81
2021/12/16 05:18:32;;;;;;;47.67;20.83;;;;;;;7.19;62.67;99871.53;4487541;31;20085;-81
2021/12/16 05:20:59;;;;;;;46.22;19.80;;;;;;;7.02;63.20;99881.53;4487527;31;20137;-81
2021/12/16 05:28:39;;;;;;;45.72;18.90;;;;;;;6.92;63.91;99887.91;4486344;32;20088;-80
2021/12/16 05:31:05;;;;;;;43.00;16.98;;;;;;;7.06;63.71;99891.91;4487475;31;20582;-81
2021/12/16 05:33:30;;;;;;;41.20;17.05;;;;;;;7.17;63.38;99896.91;4486216;32;20108;-81
2021/12/16 05:35:56;;;;;;;43.78;18.17;;;;;;;7.13;63.37;99900.50;4487413;31;20394;-81
2021/12/16 05:38:23;;;;;;;41.78;18.23;;;;;;;7.26;63.02;99903.69;4486155;32;20080;-81
2021/12/16 05:40:49;;;;;;;42.78;17.45;;;;;;;7.24;63.01;99910.72;4487340;31;20110;-81
2021/12/16 05:43:16;;;;;;;40.85;17.80;;;;;;;7.31;63.02;99907.09;4487406;31;20084;-82
2021/12/16 05:45:43;;;;;;;42.47;17.45;;;;;;;7.23;63.24;99907.25;4486256;32;20135;-81
2021/12/16 05:48:12;;;;;;;45.00;19.47;;;;;;;6.99;64.04;99907.81;4487343;32;20296;-81
2021/12/16 05:50:42;;;;;;;42.92;18.48;;;;;;;7.16;63.69;99910.91;4487284;31;20092;-81
2021/12/16 05:53:07;;;;;;;45.28;19.15;;;;;;;7.24;63.44;99914.25;4487230;31;20092;-81
2021/12/16 05:55:33;;;;;;;45.28;19.70;;;;;;;7.14;63.81;99915.31;4486123;32;20126;-81
2021/12/16 05:58:02;;;;;;;44.08;18.55;;;;;;;7.20;63.70;99920.41;4487263;31;20268;-81
2021/12/16 06:00:32;;;;;;;47.28;18.40;;;;;;;7.16;64.05;99918.78;4485587;32;20118;-81
2021/12/16 06:02:58;;;;;;;39.63;17.37;;;;;;;7.11;64.26;99914.53;4487361;31;20520;-81
2021/12/16 06:05:24;;;;;;;47.28;19.67;;;;;;;7.19;64.11;99915.25;4487160;31;20116;-81
2021/12/16 06:07:50;;;;;;;49.40;18.58;;;;;;;7.26;63.98;99914.19;4486393;32;20088;-81
2021/12/16 06:12:53;;;;;;;44.10;18.23;;;;;;;7.28;63.86;99907.13;4487316;31;20148;-81
2021/12/16 06:15:34;;;;;;;41.15;18.17;;;;;;;7.28;63.98;99908.03;4487254;32;20436;-82
2021/12/16 06:26:31;;;;;;;44.17;17.20;;;;;;;6.89;65.65;99897.56;4487260;32;20122;-81
2021/12/16 06:28:56;;;;;;;44.35;17.10;;;;;;;6.82;66.27;99908.19;4487043;31;20106;-81
2021/12/16 06:31:22;;;;;;;42.30;16.33;;;;;;;6.87;65.98;99904.53;4487010;31;20088;-81
2021/12/16 06:33:48;;;;;;;38.95;16.80;;;;;;;6.92;66.04;99906.22;4485750;32;20108;-81
2021/12/16 06:36:13;;;;;;;43.83;16.58;;;;;;;6.84;66.19;99909.00;4486750;31;20092;-81
2021/12/16 06:38:39;;;;;;;40.15;17.42;;;;;;;6.77;66.57;99913.50;4484978;32;20103;-81
2021/12/16 06:41:04;;;;;;;41.03;17.80;;;;;;;6.80;66.55;99913.44;4487164;31;20076;-81
2021/12/16 06:43:32;;;;;;;40.38;17.10;;;;;;;6.82;66.24;99911.66;4472911;32;20337;-81
2021/12/16 06:45:59;;;;;;;44.50;18.37;;;;;;;6.67;66.64;99918.06;4487192;31;20401;-81
2021/12/16 06:48:30;;;;;;;40.88;16.98;;;;;;;6.97;66.01;99920.06;4485990;32;20088;-81
2021/12/16 06:51:00;;;;;;;42.17;17.33;;;;;;;7.00;65.71;99918.25;4487096;31;20428;-81
2021/12/16 06:53:32;;;;;;;43.05;17.73;;;;;;;6.87;66.22;99935.13;4473172;32;20143;-81
2021/12/16 06:56:13;;;;;;;42.92;18.27;;;;;;;7.04;65.85;99932.16;4485716;32;20456;-84
2021/12/16 06:58:47;;;;;;;44.53;17.35;;;;;;;7.07;65.51;99932.09;4486693;31;20553;-85
2021/12/16 07:01:30;;;;;;;40.30;17.23;;;;;;;6.81;66.28;99932.63;4485417;32;20076;-83
2021/12/16 07:03:56;;;;;;;38.25;17.52;;;;;;;6.95;65.67;99934.97;4486647;31;20163;-79
2021/12/16 07:06:25;;;;;;;37.70;16.37;;;;;;;6.58;67.05;99935.72;4485287;32;20360;-83
2021/12/16 07:08:52;;;;;;;38.72;16.45;;;;;;;6.71;66.59;99942.44;4485261;32;20092;-83
2021/12/16 07:11:19;;;;;;;41.70;17.48;;;;;;;6.72;66.85;99940.69;4472308;32;20077;-82
2021/12/16 07:13:55;;;;;;;40.78;16.67;;;;;;;6.64;67.19;99939.06;4485831;31;20162;-87
2021/12/16 07:16:21;;;;;;;38.17;16.12;;;;;;;6.83;66.43;99941.31;4485314;31;20206;-85
2021/12/16 07:18:46;;;;;;;35.70;16.90;;;;;;;6.60;67.29;99939.16;4483632;32;20088;-82
2021/12/16 07:21:12;;;;;;;41.35;16.60;;;;;;;6.65;67.23;99939.94;4485794;31;20110;-86
2021/12/16 07:23:37;;;;;;;38.92;16.25;;;;;;;6.57;67.59;99945.34;4485895;31;20100;-87
2021/12/16 07:26:03;;;;;;;35.78;14.45;;;;;;;6.82;67.06;99935.22;4486139;31;20155;-86
2021/12/16 07:28:28;;;;;;;35.28;14.90;;;;;;;6.91;66.84;99939.41;4491157;31;20092;-84
2021/12/16 07:30:54;;;;;;;34.25;14.57;;;;;;;6.84;67.40;99940.44;4479301;31;20385;-86
2021/12/16 07:33:20;;;;;;;32.72;13.55;;;;;;;6.82;67.42;99937.00;4491756;31;20129;-86
2021/12/16 07:35:46;;;;;;;32.15;14.15;;;;;;;6.78;67.86;99932.69;4490905;31;20092;-86
2021/12/16 07:38:12;;;;;;;33.97;13.95;;;;;;;6.83;67.73;99938.72;4490171;31;20100;-88
2021/12/16 07:40:39;;;;;;;37.47;14.02;;;;;;;6.76;68.16;99927.50;4485343;31;20462;-82
2021/12/16 07:45:36;;;;;;;37.15;14.60;;;;;;;6.91;67.45;99926.31;4487586;31;20176;-82
2021/12/16 07:48:03;;;;;;;36.33;14.02;;;;;;;6.82;67.37;99932.63;4491736;31;20521;-83
2021/12/16 07:50:28;;;;;;;35.47;14.75;;;;;;;7.07;66.80;99932.09;4491394;31;20104;-83
2021/12/16 07:52:54;;;;;;;31.52;14.15;;;;;;;7.12;66.82;99930.22;4494777;31;20103;-83
2021/12/16 07:55:20;;;;;;;38.58;15.82;;;;;;;7.17;66.55;99931.00;4493499;31;20118;-82
2021/12/16 07:57:46;;;;;;;35.38;14.75;;;;;;;7.02;66.86;99928.72;4480802;31;20088;-84
2021/12/16 08:00:24;;;;;;;38.08;16.83;;;;;;;7.12;66.72;99924.13;4492144;31;20546;-81
2021/12/16 08:02:49;;;;;;;37.10;15.45;;;;;;;7.15;66.65;99921.44;4480400;31;20104;-83
2021/12/16 08:05:16;;;;;;;39.30;14.77;;;;;;;7.13;66.57;99925.84;4494101;31;20118;-83
2021/12/16 08:07:41;;;;;;;34.08;14.80;;;;;;;7.16;66.68;99921.38;4491888;31;20088;-84
2021/12/16 08:10:10;;;;;;;38.70;16.67;;;;;;;6.99;67.07;99919.16;4478240;32;20107;-85
2021/12/16 08:12:35;;;;;;;35.30;14.20;;;;;;;7.04;67.15;99916.44;4489970;31;20122;-85
2021/12/16 08:15:01;;;;;;;32.00;13.55;;;;;;;7.12;67.04;99932.00;4497306;31;20092;-84
2021/12/16 08:17:27;;;;;;;35.53;13.60;;;;;;;6.81;67.99;99924.78;4503840;31;20120;-83
2021/12/16 08:19:52;;;;;;;34.05;13.85;;;;;;;6.94;67.74;99928.88;4489165;31;20106;-82
2021/12/16 08:22:18;;;;;;;34.50;13.15;;;;;;;7.00;67.42;99926.13;4502279;31;20115;-83
2021/12/16 08:24:44;;;;;;;37.03;15.00;;;;;;;6.82;68.39;99931.75;4488881;31;20099;-82
2021/12/16 08:27:10;;;;;;;32.47;14.23;;;;;;;6.74;68.99;99938.88;4503499;31;20504;-83
2021/12/16 08:29:36;;;;;;;31.92;14.00;;;;;;;6.74;68.62;99925.78;4503768;31;20080;-82
2021/12/16 08:32:02;;;;;;;33.92;13.70;;;;;;;6.73;68.85;99931.94;4503639;31;20087;-83
2021/12/16 08:34:31;;;;;;;33.38;13.43;;;;;;;6.88;68.49;99926.38;4503736;31;20087;-83
2021/12/16 08:36:56;;;;;;;35.05;14.15;;;;;;;6.64;69.52;99930.34;4503433;31;20115;-83
2021/12/16 08:39:23;;;;;;;35.63;14.13;;;;;;;6.77;69.01;99926.59;4489034;31;20111;-83
2021/12/16 08:41:50;;;;;;;34.20;14.48;;;;;;;6.57;70.10;99936.62;4503503;31;20701;-83
2021/12/16 08:44:16;;;;;;;36.67;13.68;;;;;;;6.48;70.67;99932.44;4503481;31;20095;-83
2021/12/16 08:46:46;;;;;;;34.10;14.07;;;;;;;6.83;69.50;99926.47;4503572;31;20088;-83
2021/12/16 08:49:12;;;;;;;36.40;15.20;;;;;;;6.61;70.15;99927.81;4503576;31;20083;-83
2021/12/16 08:51:42;;;;;;;34.22;14.45;;;;;;;6.64;70.34;99928.59;4503406;31;20145;-82
2021/12/16 08:54:07;;;;;;;35.10;14.55;;;;;;;6.82;69.86;99931.75;4503601;31;20130;-83
2021/12/16 08:56:33;;;;;;;37.80;14.20;;;;;;;6.77;70.11;99929.22;4503488;31;20538;-82
2021/12/16 08:58:59;;;;;;;34.85;13.90;;;;;;;6.81;70.56;99930.88;4503278;31;20075;-83
2021/12/16 09:01:30;;;;;;;34.20;14.40;;;;;;;7.05;69.56;99924.25;4502605;31;20108;-83
2021/12/16 09:03:56;;;;;;;35.50;14.75;;;;;;;6.89;70.68;99915.88;4503433;31;20112;-83
2021/12/16 09:06:22;;;;;;;39.60;15.45;;;;;;;7.06;70.26;99925.13;4503467;31;20114;-82
2021/12/16 09:08:48;;;;;;;37.75;16.15;;;;;;;7.29;69.25;99917.59;4503314;31;20339;-83
2021/12/16 09:11:19;;;;;;;36.97;15.65;;;;;;;7.25;69.40;99920.34;4503239;31;20096;-83
2021/12/16 09:13:46;;;;;;;36.20;14.52;;;;;;;7.48;68.76;99907.53;4503239;31;20159;-83
2021/12/16 09:16:16;;;;;;;33.15;14.30;;;;;;;7.65;68.14;99908.91;4488927;31;20100;-83
2021/12/16 09:18:43;;;;;;;32.20;13.65;;;;;;;7.80;67.33;99912.91;4503349;31;20422;-83
2021/12/16 09:21:14;;;;;;;31.08;13.20;;;;;;;7.40;68.86;99906.88;4488935;31;20179;-83
2021/12/16 09:23:41;;;;;;;30.17;13.02;;;;;;;7.41;68.35;99912.97;4503512;31;20121;-83
2021/12/16 09:26:07;;;;;;;33.85;14.55;;;;;;;7.45;68.26;99909.37;4475897;31;20117;-83
2021/12/16 09:28:32;;;;;;;30.35;12.65;;;;;;;7.49;68.27;99903.16;4503298;31;20099;-83
2021/12/16 09:30:58;;;;;;;27.35;12.13;;;;;;;7.48;68.51;99910.16;4488971;31;20146;-83
2021/12/16 09:33:25;;;;;;;30.20;12.55;;;;;;;7.72;67.63;99910.47;4503158;31;20149;-83
2021/12/16 09:35:54;;;;;;;27.65;11.65;;;;;;;7.47;68.30;99902.34;4503553;31;20120;-83
2021/12/16 09:38:20;;;;;;;28.50;12.00;;;;;;;7.56;68.22;99909.13;4503415;31;20088;-83
2021/12/16 09:40:50;;;;;;;28.38;11.80;;;;;;;7.86;66.85;99918.88;4488747;31;20138;-83
2021/12/16 09:43:26;;;;;;;28.27;12.10;;;;;;;7.72;67.26;99904.38;4502935;31;20107;-83
2021/12/16 09:45:55;;;;;;;28.60;12.57;;;;;;;8.05;66.29;99910.50;4502937;31;20076;-83
2021/12/16 09:48:21;;;;;;;26.00;10.95;;;;;;;8.31;64.78;99901.09;4503129;31;20093;-82
2021/12/16 09:50:47;;;;;;;27.98;12.55;;;;;;;8.14;65.45;99901.53;4503239;31;20107;-83
2021/12/16 09:53:13;;;;;;;28.67;12.15;;;;;;;8.53;64.73;99901.37;4503043;31;20092;-83
2021/12/16 09:55:39;;;;;;;28.30;12.32;;;;;;;8.76;63.40;99901.56;4503027;31;20427;-83
2021/12/16 09:58:05;;;;;;;27.92;11.55;;;;;;;8.78;63.13;99899.75;4503079;31;20502;-83
2021/12/16 10:00:32;;;;;;;26.85;11.82;;;;;;;9.12;62.55;99893.50;4502793;31;20142;-83
2021/12/16 10:03:00;;;;;;;30.23;12.45;;;;;;;9.02;62.33;99894.66;4503066;31;20149;-83
2021/12/16 10:05:27;;;;;;;30.15;12.73;;;;;;;9.19;62.34;99899.41;4503045;31;20096;-83
2021/12/16 10:07:53;;;;;;;29.90;12.70;;;;;;;9.42;61.24;99894.28;4502996;31;20081;-83
2021/12/16 10:10:25;;;;;;;28.77;12.32;;;;;;;9.77;60.12;99888.78;4502967;31;20107;-83
2021/12/16 10:12:54;;;;;;;28.02;12.27;;;;;;;9.86;59.54;99885.84;4502821;31;20095;-83
2021/12/16 10:18:07;;;;;;;27.70;12.37;;;;;;;9.97;59.22;99882.84;4502835;31;20111;-83
2021/12/16 10:20:39;;;;;;;26.05;11.80;;;;;;;10.03;58.89;99886.13;4502955;31;20355;-83
2021/12/16 10:23:14;;;;;;;30.77;13.15;;;;;;;9.96;59.32;99874.06;4488384;31;20172;-83
2021/12/16 10:25:41;;;;;;;32.15;13.30;;;;;;;10.20;58.81;99868.88;4502911;31;20431;-83
2021/12/16 10:28:08;;;;;;;28.75;12.43;;;;;;;10.33;58.66;99864.03;4488335;31;20088;-83
2021/12/16 10:30:42;;;;;;;26.25;11.98;;;;;;;10.52;57.55;99864.25;4502782;31;20088;-83
2021/12/16 10:33:15;;;;;;;28.00;12.75;;;;;;;10.61;57.24;99856.00;4502972;31;20096;-83
2021/12/16 10:35:41;;;;;;;30.25;13.85;;;;;;;10.62;57.09;99853.31;4502761;31;20440;-83
2021/12/16 10:38:07;;;;;;;29.17;13.13;;;;;;;10.51;57.33;99863.37;4502721;31;20092;-83
2021/12/16 10:40:35;;;;;;;29.60;14.38;;;;;;;10.56;56.66;99858.78;4502605;31;20096;-83
2021/12/16 10:43:09;;;;;;;30.40;13.57;;;;;;;10.30;57.47;99856.25;4502841;31;20420;-83
2021/12/16 10:45:37;;;;;;;27.95;12.88;;;;;;;10.42;57.08;99859.28;4488450;31;20118;-83
2021/12/16 10:48:41;;;;;;;27.35;11.70;;;;;;;9.95;58.34;99859.22;4502704;31;20092;-83
2021/12/16 10:51:25;;;;;;;25.95;11.02;;;;;;;10.05;58.23;99846.59;4502644;31;20126;-84
2021/12/16 10:54:11;;;;;;;22.85;10.05;;;;;;;10.07;58.07;99854.44;4502731;31;20119;-84
2021/12/16 10:56:59;;;;;;;25.98;11.18;;;;;;;9.64;59.06;99860.25;4502592;31;20100;-83
2021/12/16 10:59:44;;;;;;;25.50;10.50;;;;;;;9.48;59.92;99855.53;4485912;31;20095;-83
2021/12/16 11:02:11;;;;;;;25.92;11.50;;;;;;;9.49;59.84;99859.91;4502342;31;20122;-83
2021/12/16 11:04:36;;;;;;;23.90;11.05;;;;;;;9.54;59.96;99861.47;4488120;31;20475;-84
2021/12/16 11:07:11;;;;;;;26.98;11.63;;;;;;;9.58;59.92;99864.84;4502443;31;20084;-84
2021/12/16 11:09:47;;;;;;;26.85;10.88;;;;;;;9.53;59.98;99857.13;4502518;31;20092;-84
2021/12/16 11:12:17;;;;;;;25.33;11.12;;;;;;;8.84;62.00;99860.16;4502313;31;20095;-83
2021/12/16 11:14:49;;;;;;;26.00;11.45;;;;;;;8.76;62.74;99864.78;4488154;31;20099;-83
2021/12/16 11:17:16;;;;;;;27.48;12.55;;;;;;;8.76;62.92;99863.94;4502523;31;20091;-83
2021/12/16 11:19:49;;;;;;;28.77;12.13;;;;;;;8.72;63.13;99855.28;4502334;31;20145;-83
2021/12/16 11:22:19;;;;;;;28.20;12.70;;;;;;;8.49;64.13;99861.19;4502295;31;20470;-83
2021/12/16 11:24:45;;;;;;;27.55;12.30;;;;;;;8.11;65.49;99860.47;4501598;31;20100;-83
2021/12/16 11:27:31;;;;;;;30.48;12.93;;;;;;;8.54;64.19;99855.84;4502162;31;20114;-83
2021/12/16 11:29:59;;;;;;;29.35;12.13;;;;;;;8.12;65.12;99853.47;4487938;31;20088;-83
2021/12/16 11:32:54;;;;;;;30.30;13.60;;;;;;;8.25;65.21;99842.59;4502148;31;20151;-83
2021/12/16 11:35:22;;;;;;;30.83;13.62;;;;;;;8.14;65.77;99847.28;4485115;31;20099;-84
2021/12/16 11:37:48;;;;;;;30.17;13.88;;;;;;;7.98;66.31;99851.22;4502142;31;20088;-83
2021/12/16 11:40:15;;;;;;;29.17;14.18;;;;;;;7.97;66.52;99847.72;4501942;31;20152;-84
2021/12/16 11:42:41;;;;;;;31.00;14.35;;;;;;;7.72;67.54;99846.66;4501938;31;20108;-84
2021/12/16 11:45:06;;;;;;;33.95;14.15;;;;;;;7.81;67.60;99847.28;4501946;31;20496;-84
2021/12/16 11:47:32;;;;;;;32.55;14.10;;;;;;;7.95;67.07;99843.44;4501971;31;20423;-83
2021/12/16 11:50:02;;;;;;;28.98;13.50;;;;;;;7.67;68.28;99847.66;4501817;31;20123;-84
2021/12/16 11:52:29;;;;;;;34.33;13.93;;;;;;;7.88;67.70;99840.97;4501802;31;20442;-83
2021/12/16 11:54:59;;;;;;;32.95;13.48;;;;;;;7.69;68.30;99831.88;4501735;31;20451;-83
2021/12/16 11:58:00;;;;;;;34.90;14.27;;;;;;;7.64;68.74;99839.84;4487529;31;20097;-84
2021/12/16 12:00:30;;;;;;;28.90;14.52;;;;;;;7.31;69.93;99833.69;4487840;31;20627;-83
2021/12/16 12:03:02;;;;;;;33.17;14.32;;;;;;;7.66;69.21;99831.94;4501686;31;20159;-84
2021/12/16 12:05:30;;;;;;;29.50;12.80;;;;;;;7.83;68.36;99828.88;4501739;31;20092;-83
2021/12/16 12:07:59;;;;;;;34.97;14.77;;;;;;;7.89;67.81;99833.97;4501609;31;20104;-83
2021/12/16 12:10:51;;;;;;;30.10;13.57;;;;;;;8.18;66.86;99830.53;4501541;31;20081;-83
2021/12/16 12:13:28;;;;;;;32.95;14.23;;;;;;;8.10;67.08;99834.28;4501464;31;20116;-83
2021/12/16 12:16:01;;;;;;;29.40;12.57;;;;;;;8.36;66.03;99831.75;4501652;31;20087;-83
2021/12/16 12:18:39;;;;;;;29.90;13.50;;;;;;;8.10;66.28;99831.66;4501560;31;20551;-83
2021/12/16 12:21:25;;;;;;;32.30;13.60;;;;;;;8.08;66.92;99829.94;4501553;31;20448;-84
2021/12/16 12:24:13;;;;;;;29.52;13.13;;;;;;;8.03;67.28;99830.97;4501533;31;20114;-83
2021/12/16 12:26:45;;;;;;;26.60;12.80;;;;;;;7.97;67.51;99828.50;4501477;31;20145;-83
2021/12/16 12:29:15;;;;;;;30.20;13.62;;;;;;;8.16;66.85;99824.47;4501523;31;20114;-83
2021/12/16 12:31:44;;;;;;;30.25;13.13;;;;;;;8.03;67.42;99834.44;4501293;31;20102;-83
2021/12/16 12:34:10;;;;;;;33.00;15.32;;;;;;;8.04;67.30;99827.44;4501298;31;20118;-83
2021/12/16 12:36:37;;;;;;;30.17;14.60;;;;;;;8.23;66.88;99818.16;4502912;31;20530;-83
2021/12/16 12:39:09;;;;;;;30.25;14.77;;;;;;;8.01;67.54;99833.63;4489130;31;20075;-83
2021/12/16 12:41:35;;;;;;;31.65;13.57;;;;;;;8.24;66.48;99819.84;4489177;31;20091;-83
2021/12/16 12:44:04;;;;;;;30.58;14.07;;;;;;;8.35;66.15;99818.72;4476093;31;20096;-83
2021/12/16 12:46:31;;;;;;;31.80;13.85;;;;;;;8.59;65.31;99822.41;4503572;31;20099;-83
2021/12/16 12:49:00;;;;;;;32.20;13.55;;;;;;;8.52;65.45;99820.84;4476064;31;20151;-83
2021/12/16 12:51:42;;;;;;;29.40;13.98;;;;;;;8.42;65.90;99822.88;4503551;31;20106;-83
2021/12/16 12:54:30;;;;;;;30.25;14.57;;;;;;;8.18;66.60;99819.19;4503528;31;20100;-83
2021/12/16 12:56:58;;;;;;;30.67;13.57;;;;;;;8.26;66.58;99820.66;4503464;31;20092;-83
2021/12/16 12:59:36;;;;;;;32.10;13.30;;;;;;;8.33;66.44;99815.28;4489306;31;20138;-83
2021/12/16 13:02:19;;;;;;;29.15;14.60;;;;;;;8.61;65.42;99821.44;4503342;31;20439;-83
2021/12/16 13:04:59;;;;;;;30.77;14.45;;;;;;;8.57;65.29;99826.84;4503579;31;20155;-83
2021/12/16 13:07:43;;;;;;;29.33;13.70;;;;;;;8.67;65.11;99830.91;4503434;31;20167;-83
2021/12/16 13:10:21;;;;;;;27.08;11.70;;;;;;;8.83;64.50;99831.31;4503378;31;20400;-83
2021/12/16 13:13:02;;;;;;;26.85;11.77;;;;;;;9.03;63.50;99823.66;4503776;31;20145;-83
2021/12/16 13:27:07;;;;;;;25.90;12.25;;;;;;;8.91;63.95;99834.56;4410723;32;20497;-83
2021/12/16 13:29:40;;;;;;;28.02;12.23;;;;;;;8.68;64.62;99839.66;4418344;32;20098;-80
2021/12/16 13:32:18;;;;;;;25.45;13.43;;;;;;;8.65;64.67;99846.72;4407958;32;20085;-81
2021/12/16 13:37:33;;;;;;;26.55;12.57;;;;;;;8.51;65.33;99848.03;4407247;32;20161;-82
2021/12/16 13:40:06;;;;;;;30.60;13.32;;;;;;;8.24;66.26;99850.50;4394971;32;20145;-82
2021/12/16 13:42:58;;;;;;;27.42;13.02;;;;;;;8.55;65.36;99847.87;4407631;32;20132;-82
2021/12/16 13:45:29;;;;;;;28.70;12.48;;;;;;;8.55;65.52;99854.91;4407659;32;20757;-82
2021/12/16 13:48:22;;;;;;;27.10;13.18;;;;;;;8.50;65.50;99849.81;4395018;32;20529;-82
2021/12/16 14:07:55;;;;;;;28.92;12.95;;;;;;;7.84;68.08;99862.06;4407543;32;20091;-81
2021/12/16 14:10:32;;;;;;;28.85;13.35;;;;;;;7.90;68.10;99855.81;4407480;32;20476;-81
2021/12/16 14:25:35;;;;;;;29.52;12.48;;;;;;;7.86;68.11;99863.78;4407115;32;20120;-81
2021/12/16 14:50:12;;;;;;;23.05;11.27;;;;;;;7.78;68.75;99863.09;4486417;32;20076;-82
2021/12/16 14:52:38;;;;;;;22.95;10.73;;;;;;;7.67;69.08;99859.91;4472518;32;20163;-82
2021/12/16 14:55:08;;;;;;;26.50;11.18;;;;;;;7.68;68.86;99859.84;4486666;32;20115;-81
2021/12/16 14:57:37;;;;;;;25.27;10.95;;;;;;;7.67;69.19;99859.91;4485985;32;20450;-80
2021/12/16 15:00:15;;;;;;;23.73;10.40;;;;;;;7.49;69.70;99866.44;4486126;32;20084;-82
2021/12/16 15:02:42;;;;;;;23.27;11.07;;;;;;;7.75;69.01;99860.56;4472122;32;20456;-83
2021/12/16 15:05:30;;;;;;;25.33;12.23;;;;;;;7.65;69.40;99853.84;4486668;32;20127;-82
2021/12/16 15:08:07;;;;;;;25.40;11.87;;;;;;;7.66;69.23;99851.16;4486693;32;20186;-81